sensor_id;sensor_type;location;lat;lon;timestamp;P1;durP1;ratioP1;P2;durP2;ratioP2
64351;SDS011;50680;52.626;-8.668;2023-11-19T00:00:19;33.22;;;5.18;;
64351;SDS011;50680;52.626;-8.668;2023-11-19T00:02:47;18.25;;;4.00;;
64351;SDS011;50680;52.626;-8.668;2023-11-19T00:05:14;24.27;;;5.35;;
64351;SDS011;50680;52.626;-8.668;2023-11-19T00:07:41;36.72;;;6.00;;
64351;SDS011;50680;52.626;-8.668;2023-11-19T00:10:13;30.98;;;5.25;;
64351;SDS011;50680;52.626;-8.668;2023-11-19T00:12:46;30.77;;;5.18;;
64351;SDS011;50680;52.626;-8.668;2023-11-19T00:15:15;22.75;;;4.72;;
64351;SDS011;50680;52.626;-8.668;2023-11-19T00:17:46;23.13;;;4.53;;
64351;SDS011;50680;52.626;-8.668;2023-11-19T00:20:16;26.88;;;4.57;;
64351;SDS011;50680;52.626;-8.668;2023-11-19T00:22:45;31.85;;;4.47;;
64351;SDS011;50680;52.626;-8.668;2023-11-19T00:25:18;26.63;;;5.35;;
64351;SDS011;50680;52.626;-8.668;2023-11-19T00:27:47;34.15;;;4.78;;
64351;SDS011;50680;52.626;-8.668;2023-11-19T00:30:14;24.02;;;3.88;;
64351;SDS011;50680;52.626;-8.668;2023-11-19T00:32:42;27.10;;;4.57;;
64351;SDS011;50680;52.626;-8.668;2023-11-19T00:35:09;24.67;;;3.88;;
64351;SDS011;50680;52.626;-8.668;2023-11-19T00:37:43;30.73;;;4.60;;
64351;SDS011;50680;52.626;-8.668;2023-11-19T00:40:12;33.90;;;5.63;;
64351;SDS011;50680;52.626;-8.668;2023-11-19T00:42:40;26.25;;;4.47;;
64351;SDS011;50680;52.626;-8.668;2023-11-19T00:45:07;22.92;;;4.50;;
64351;SDS011;50680;52.626;-8.668;2023-11-19T00:47:36;36.47;;;5.85;;
64351;SDS011;50680;52.626;-8.668;2023-11-19T00:50:03;32.70;;;4.88;;
64351;SDS011;50680;52.626;-8.668;2023-11-19T00:52:31;30.48;;;5.65;;
64351;SDS011;50680;52.626;-8.668;2023-11-19T00:54:58;33.80;;;4.70;;
64351;SDS011;50680;52.626;-8.668;2023-11-19T00:57:25;28.35;;;4.90;;
64351;SDS011;50680;52.626;-8.668;2023-11-19T00:59:53;29.70;;;4.72;;
64351;SDS011;50680;52.626;-8.668;2023-11-19T01:02:20;38.53;;;4.78;;
64351;SDS011;50680;52.626;-8.668;2023-11-19T01:04:47;29.88;;;5.32;;
64351;SDS011;50680;52.626;-8.668;2023-11-19T01:07:14;31.85;;;5.07;;
64351;SDS011;50680;52.626;-8.668;2023-11-19T01:09:41;31.45;;;4.35;;
64351;SDS011;50680;52.626;-8.668;2023-11-19T01:12:09;28.27;;;4.90;;
64351;SDS011;50680;52.626;-8.668;2023-11-19T01:14:37;30.17;;;4.85;;
64351;SDS011;50680;52.626;-8.668;2023-11-19T01:17:04;31.10;;;4.63;;
64351;SDS011;50680;52.626;-8.668;2023-11-19T01:19:31;32.90;;;5.10;;
64351;SDS011;50680;52.626;-8.668;2023-11-19T01:21:58;25.33;;;4.30;;
64351;SDS011;50680;52.626;-8.668;2023-11-19T01:24:25;32.72;;;4.93;;
64351;SDS011;50680;52.626;-8.668;2023-11-19T01:26:55;29.55;;;4.35;;
64351;SDS011;50680;52.626;-8.668;2023-11-19T01:29:24;27.95;;;4.70;;
64351;SDS011;50680;52.626;-8.668;2023-11-19T01:31:51;35.35;;;5.28;;
64351;SDS011;50680;52.626;-8.668;2023-11-19T01:34:18;32.50;;;5.30;;
64351;SDS011;50680;52.626;-8.668;2023-11-19T01:36:46;28.80;;;4.88;;
64351;SDS011;50680;52.626;-8.668;2023-11-19T01:39:15;13.82;;;3.67;;
64351;SDS011;50680;52.626;-8.668;2023-11-19T01:41:43;27.50;;;4.40;;
64351;SDS011;50680;52.626;-8.668;2023-11-19T01:44:10;24.00;;;4.05;;
64351;SDS011;50680;52.626;-8.668;2023-11-19T01:46:42;17.80;;;3.42;;
64351;SDS011;50680;52.626;-8.668;2023-11-19T01:49:12;24.20;;;4.07;;
64351;SDS011;50680;52.626;-8.668;2023-11-19T01:51:42;24.33;;;5.03;;
64351;SDS011;50680;52.626;-8.668;2023-11-19T01:54:09;20.90;;;4.65;;
64351;SDS011;50680;52.626;-8.668;2023-11-19T01:56:37;18.40;;;3.88;;
64351;SDS011;50680;52.626;-8.668;2023-11-19T01:59:07;17.80;;;3.13;;
64351;SDS011;50680;52.626;-8.668;2023-11-19T02:01:36;19.92;;;3.05;;
64351;SDS011;50680;52.626;-8.668;2023-11-19T02:04:07;20.80;;;3.45;;
64351;SDS011;50680;52.626;-8.668;2023-11-19T02:06:36;17.33;;;3.10;;
64351;SDS011;50680;52.626;-8.668;2023-11-19T02:09:08;19.88;;;3.45;;
64351;SDS011;50680;52.626;-8.668;2023-11-19T02:11:35;13.77;;;3.10;;
64351;SDS011;50680;52.626;-8.668;2023-11-19T02:14:02;21.55;;;3.88;;
64351;SDS011;50680;52.626;-8.668;2023-11-19T02:16:32;23.67;;;3.65;;
64351;SDS011;50680;52.626;-8.668;2023-11-19T02:18:59;18.15;;;3.33;;
64351;SDS011;50680;52.626;-8.668;2023-11-19T02:21:26;17.98;;;3.60;;
64351;SDS011;50680;52.626;-8.668;2023-11-19T02:23:53;22.30;;;4.50;;
64351;SDS011;50680;52.626;-8.668;2023-11-19T02:28:58;31.75;;;4.30;;
64351;SDS011;50680;52.626;-8.668;2023-11-19T02:31:25;27.15;;;4.18;;
64351;SDS011;50680;52.626;-8.668;2023-11-19T02:33:54;24.88;;;4.50;;
64351;SDS011;50680;52.626;-8.668;2023-11-19T02:36:21;26.40;;;4.57;;
64351;SDS011;50680;52.626;-8.668;2023-11-19T02:38:48;27.90;;;4.97;;
64351;SDS011;50680;52.626;-8.668;2023-11-19T02:41:16;19.83;;;4.43;;
64351;SDS011;50680;52.626;-8.668;2023-11-19T02:43:44;29.60;;;5.22;;
64351;SDS011;50680;52.626;-8.668;2023-11-19T02:46:11;24.17;;;4.35;;
64351;SDS011;50680;52.626;-8.668;2023-11-19T02:48:41;30.20;;;5.45;;
64351;SDS011;50680;52.626;-8.668;2023-11-19T02:51:09;30.10;;;4.75;;
64351;SDS011;50680;52.626;-8.668;2023-11-19T02:53:37;22.75;;;4.35;;
64351;SDS011;50680;52.626;-8.668;2023-11-19T02:56:06;27.05;;;4.28;;
64351;SDS011;50680;52.626;-8.668;2023-11-19T02:58:52;26.08;;;5.00;;
64351;SDS011;50680;52.626;-8.668;2023-11-19T03:01:23;20.67;;;3.75;;
64351;SDS011;50680;52.626;-8.668;2023-11-19T03:03:57;22.90;;;3.75;;
64351;SDS011;50680;52.626;-8.668;2023-11-19T03:06:25;16.80;;;3.95;;
64351;SDS011;50680;52.626;-8.668;2023-11-19T03:08:54;21.60;;;3.80;;
64351;SDS011;50680;52.626;-8.668;2023-11-19T03:11:21;16.50;;;3.88;;
64351;SDS011;50680;52.626;-8.668;2023-11-19T03:13:48;25.08;;;3.97;;
64351;SDS011;50680;52.626;-8.668;2023-11-19T03:16:15;17.55;;;4.07;;
64351;SDS011;50680;52.626;-8.668;2023-11-19T03:18:44;27.30;;;4.68;;
64351;SDS011;50680;52.626;-8.668;2023-11-19T03:21:11;27.83;;;4.30;;
64351;SDS011;50680;52.626;-8.668;2023-11-19T03:23:39;19.33;;;3.70;;
64351;SDS011;50680;52.626;-8.668;2023-11-19T03:26:07;28.23;;;4.03;;
64351;SDS011;50680;52.626;-8.668;2023-11-19T03:28:34;23.55;;;6.07;;
64351;SDS011;50680;52.626;-8.668;2023-11-19T03:31:04;18.98;;;3.38;;
64351;SDS011;50680;52.626;-8.668;2023-11-19T03:33:33;17.80;;;4.13;;
64351;SDS011;50680;52.626;-8.668;2023-11-19T03:36:00;16.55;;;3.22;;
64351;SDS011;50680;52.626;-8.668;2023-11-19T03:38:27;19.60;;;3.45;;
64351;SDS011;50680;52.626;-8.668;2023-11-19T03:40:54;19.13;;;3.33;;
64351;SDS011;50680;52.626;-8.668;2023-11-19T03:43:20;19.92;;;3.50;;
64351;SDS011;50680;52.626;-8.668;2023-11-19T03:45:48;16.17;;;2.78;;
64351;SDS011;50680;52.626;-8.668;2023-11-19T03:48:15;19.27;;;3.15;;
64351;SDS011;50680;52.626;-8.668;2023-11-19T03:50:43;11.98;;;2.78;;
64351;SDS011;50680;52.626;-8.668;2023-11-19T03:53:11;9.48;;;2.70;;
64351;SDS011;50680;52.626;-8.668;2023-11-19T03:55:38;14.02;;;3.28;;
64351;SDS011;50680;52.626;-8.668;2023-11-19T03:58:05;15.27;;;3.78;;
64351;SDS011;50680;52.626;-8.668;2023-11-19T04:00:32;11.70;;;2.45;;
64351;SDS011;50680;52.626;-8.668;2023-11-19T04:02:59;13.30;;;2.85;;
64351;SDS011;50680;52.626;-8.668;2023-11-19T04:05:27;13.73;;;2.70;;
64351;SDS011;50680;52.626;-8.668;2023-11-19T04:07:54;13.32;;;3.05;;
64351;SDS011;50680;52.626;-8.668;2023-11-19T04:10:21;13.50;;;2.75;;
64351;SDS011;50680;52.626;-8.668;2023-11-19T04:12:49;19.27;;;2.80;;
64351;SDS011;50680;52.626;-8.668;2023-11-19T04:15:16;14.63;;;3.28;;
64351;SDS011;50680;52.626;-8.668;2023-11-19T04:17:43;14.68;;;3.35;;
64351;SDS011;50680;52.626;-8.668;2023-11-19T04:20:11;13.27;;;2.75;;
64351;SDS011;50680;52.626;-8.668;2023-11-19T04:22:41;12.23;;;2.53;;
64351;SDS011;50680;52.626;-8.668;2023-11-19T04:25:08;17.65;;;2.67;;
64351;SDS011;50680;52.626;-8.668;2023-11-19T04:27:36;15.05;;;2.78;;
64351;SDS011;50680;52.626;-8.668;2023-11-19T04:30:03;9.90;;;2.58;;
64351;SDS011;50680;52.626;-8.668;2023-11-19T04:32:31;13.90;;;2.55;;
64351;SDS011;50680;52.626;-8.668;2023-11-19T04:34:58;12.55;;;2.60;;
64351;SDS011;50680;52.626;-8.668;2023-11-19T04:37:25;10.50;;;3.03;;
64351;SDS011;50680;52.626;-8.668;2023-11-19T04:39:52;8.95;;;1.98;;
64351;SDS011;50680;52.626;-8.668;2023-11-19T04:42:19;9.98;;;2.10;;
64351;SDS011;50680;52.626;-8.668;2023-11-19T04:44:48;8.85;;;1.63;;
64351;SDS011;50680;52.626;-8.668;2023-11-19T04:47:15;8.52;;;2.33;;
64351;SDS011;50680;52.626;-8.668;2023-11-19T04:49:43;13.18;;;2.28;;
64351;SDS011;50680;52.626;-8.668;2023-11-19T04:52:10;8.55;;;2.20;;
64351;SDS011;50680;52.626;-8.668;2023-11-19T04:54:42;6.47;;;1.67;;
64351;SDS011;50680;52.626;-8.668;2023-11-19T04:57:10;5.72;;;1.55;;
64351;SDS011;50680;52.626;-8.668;2023-11-19T04:59:40;5.47;;;2.05;;
64351;SDS011;50680;52.626;-8.668;2023-11-19T05:02:08;8.30;;;1.80;;
64351;SDS011;50680;52.626;-8.668;2023-11-19T05:04:36;8.05;;;1.65;;
64351;SDS011;50680;52.626;-8.668;2023-11-19T05:07:04;4.15;;;1.55;;
64351;SDS011;50680;52.626;-8.668;2023-11-19T05:09:31;3.10;;;1.38;;
64351;SDS011;50680;52.626;-8.668;2023-11-19T05:11:58;2.58;;;1.30;;
64351;SDS011;50680;52.626;-8.668;2023-11-19T05:14:25;3.40;;;1.40;;
64351;SDS011;50680;52.626;-8.668;2023-11-19T05:16:52;1.80;;;1.20;;
64351;SDS011;50680;52.626;-8.668;2023-11-19T05:19:19;2.15;;;1.10;;
64351;SDS011;50680;52.626;-8.668;2023-11-19T05:21:46;3.80;;;1.13;;
64351;SDS011;50680;52.626;-8.668;2023-11-19T05:24:37;3.13;;;1.02;;
64351;SDS011;50680;52.626;-8.668;2023-11-19T05:27:06;4.18;;;1.20;;
64351;SDS011;50680;52.626;-8.668;2023-11-19T05:29:34;2.38;;;1.00;;
64351;SDS011;50680;52.626;-8.668;2023-11-19T05:32:01;2.85;;;0.93;;
64351;SDS011;50680;52.626;-8.668;2023-11-19T05:34:28;1.20;;;0.90;;
64351;SDS011;50680;52.626;-8.668;2023-11-19T05:36:55;0.88;;;0.88;;
64351;SDS011;50680;52.626;-8.668;2023-11-19T05:39:22;3.17;;;1.00;;
64351;SDS011;50680;52.626;-8.668;2023-11-19T05:41:49;0.85;;;0.85;;
64351;SDS011;50680;52.626;-8.668;2023-11-19T05:44:16;1.08;;;0.88;;
64351;SDS011;50680;52.626;-8.668;2023-11-19T05:46:45;1.90;;;0.90;;
64351;SDS011;50680;52.626;-8.668;2023-11-19T05:49:12;1.25;;;1.00;;
64351;SDS011;50680;52.626;-8.668;2023-11-19T05:51:41;6.47;;;0.80;;
64351;SDS011;50680;52.626;-8.668;2023-11-19T05:54:08;4.22;;;1.15;;
64351;SDS011;50680;52.626;-8.668;2023-11-19T05:56:36;5.20;;;1.10;;
64351;SDS011;50680;52.626;-8.668;2023-11-19T05:59:03;2.92;;;0.82;;
64351;SDS011;50680;52.626;-8.668;2023-11-19T06:01:34;1.80;;;0.97;;
64351;SDS011;50680;52.626;-8.668;2023-11-19T06:04:01;2.83;;;1.10;;
64351;SDS011;50680;52.626;-8.668;2023-11-19T06:06:29;2.70;;;0.90;;
64351;SDS011;50680;52.626;-8.668;2023-11-19T06:08:55;1.85;;;1.00;;
64351;SDS011;50680;52.626;-8.668;2023-11-19T06:11:22;4.07;;;1.10;;
64351;SDS011;50680;52.626;-8.668;2023-11-19T06:13:50;1.83;;;0.80;;
64351;SDS011;50680;52.626;-8.668;2023-11-19T06:16:18;4.57;;;1.50;;
64351;SDS011;50680;52.626;-8.668;2023-11-19T06:18:45;7.28;;;1.10;;
64351;SDS011;50680;52.626;-8.668;2023-11-19T06:21:12;4.72;;;1.17;;
64351;SDS011;50680;52.626;-8.668;2023-11-19T06:23:39;7.63;;;1.38;;
64351;SDS011;50680;52.626;-8.668;2023-11-19T06:26:06;6.32;;;1.10;;
64351;SDS011;50680;52.626;-8.668;2023-11-19T06:28:34;6.10;;;1.42;;
64351;SDS011;50680;52.626;-8.668;2023-11-19T06:31:01;9.40;;;1.50;;
64351;SDS011;50680;52.626;-8.668;2023-11-19T06:33:28;9.80;;;1.90;;
64351;SDS011;50680;52.626;-8.668;2023-11-19T06:35:55;12.05;;;2.65;;
64351;SDS011;50680;52.626;-8.668;2023-11-19T06:38:21;14.70;;;2.40;;
64351;SDS011;50680;52.626;-8.668;2023-11-19T06:40:48;17.73;;;2.47;;
64351;SDS011;50680;52.626;-8.668;2023-11-19T06:45:47;12.60;;;2.42;;
64351;SDS011;50680;52.626;-8.668;2023-11-19T06:48:14;19.92;;;3.60;;
64351;SDS011;50680;52.626;-8.668;2023-11-19T06:50:41;18.88;;;3.28;;
64351;SDS011;50680;52.626;-8.668;2023-11-19T06:53:08;22.55;;;2.92;;
64351;SDS011;50680;52.626;-8.668;2023-11-19T06:55:37;16.10;;;2.60;;
64351;SDS011;50680;52.626;-8.668;2023-11-19T06:58:05;19.10;;;2.65;;
64351;SDS011;50680;52.626;-8.668;2023-11-19T07:00:32;17.35;;;2.08;;
64351;SDS011;50680;52.626;-8.668;2023-11-19T07:02:59;17.80;;;2.67;;
64351;SDS011;50680;52.626;-8.668;2023-11-19T07:05:26;22.80;;;2.78;;
64351;SDS011;50680;52.626;-8.668;2023-11-19T07:07:54;19.27;;;3.30;;
64351;SDS011;50680;52.626;-8.668;2023-11-19T07:10:22;15.68;;;3.15;;
64351;SDS011;50680;52.626;-8.668;2023-11-19T07:12:49;14.93;;;2.53;;
64351;SDS011;50680;52.626;-8.668;2023-11-19T07:15:17;17.20;;;2.85;;
64351;SDS011;50680;52.626;-8.668;2023-11-19T07:17:45;13.15;;;2.63;;
64351;SDS011;50680;52.626;-8.668;2023-11-19T07:20:12;17.42;;;3.15;;
64351;SDS011;50680;52.626;-8.668;2023-11-19T07:22:45;17.17;;;2.33;;
64351;SDS011;50680;52.626;-8.668;2023-11-19T07:25:15;12.90;;;2.17;;
64351;SDS011;50680;52.626;-8.668;2023-11-19T07:27:43;9.85;;;1.88;;
64351;SDS011;50680;52.626;-8.668;2023-11-19T07:30:10;10.20;;;2.10;;
64351;SDS011;50680;52.626;-8.668;2023-11-19T07:32:37;8.98;;;1.55;;
64351;SDS011;50680;52.626;-8.668;2023-11-19T07:35:05;9.80;;;1.50;;
64351;SDS011;50680;52.626;-8.668;2023-11-19T07:37:33;10.98;;;1.83;;
64351;SDS011;50680;52.626;-8.668;2023-11-19T07:40:01;12.82;;;2.00;;
64351;SDS011;50680;52.626;-8.668;2023-11-19T07:42:28;9.48;;;1.83;;
64351;SDS011;50680;52.626;-8.668;2023-11-19T07:44:55;11.40;;;1.77;;
64351;SDS011;50680;52.626;-8.668;2023-11-19T07:47:23;6.22;;;1.70;;
64351;SDS011;50680;52.626;-8.668;2023-11-19T07:49:50;13.48;;;2.03;;
64351;SDS011;50680;52.626;-8.668;2023-11-19T07:52:17;8.95;;;1.50;;
64351;SDS011;50680;52.626;-8.668;2023-11-19T07:54:47;9.65;;;2.25;;
64351;SDS011;50680;52.626;-8.668;2023-11-19T07:57:15;9.80;;;2.35;;
64351;SDS011;50680;52.626;-8.668;2023-11-19T07:59:42;10.07;;;1.52;;
64351;SDS011;50680;52.626;-8.668;2023-11-19T08:02:09;6.25;;;1.48;;
64351;SDS011;50680;52.626;-8.668;2023-11-19T08:04:38;8.85;;;2.20;;
64351;SDS011;50680;52.626;-8.668;2023-11-19T08:07:11;10.30;;;2.15;;
64351;SDS011;50680;52.626;-8.668;2023-11-19T08:09:38;20.15;;;2.85;;
64351;SDS011;50680;52.626;-8.668;2023-11-19T08:12:05;16.42;;;2.30;;
64351;SDS011;50680;52.626;-8.668;2023-11-19T08:14:33;17.90;;;2.30;;
64351;SDS011;50680;52.626;-8.668;2023-11-19T08:17:01;20.45;;;2.90;;
64351;SDS011;50680;52.626;-8.668;2023-11-19T08:19:28;14.27;;;2.30;;
64351;SDS011;50680;52.626;-8.668;2023-11-19T08:21:57;9.52;;;2.00;;
64351;SDS011;50680;52.626;-8.668;2023-11-19T08:24:25;11.10;;;1.85;;
64351;SDS011;50680;52.626;-8.668;2023-11-19T08:26:51;7.38;;;1.83;;
64351;SDS011;50680;52.626;-8.668;2023-11-19T08:29:21;11.07;;;1.77;;
64351;SDS011;50680;52.626;-8.668;2023-11-19T08:31:49;10.70;;;2.05;;
64351;SDS011;50680;52.626;-8.668;2023-11-19T08:34:16;8.60;;;1.75;;
64351;SDS011;50680;52.626;-8.668;2023-11-19T08:36:43;21.45;;;2.85;;
64351;SDS011;50680;52.626;-8.668;2023-11-19T08:39:10;15.32;;;3.15;;
64351;SDS011;50680;52.626;-8.668;2023-11-19T08:41:37;18.63;;;2.80;;
64351;SDS011;50680;52.626;-8.668;2023-11-19T08:44:06;23.92;;;3.25;;
64351;SDS011;50680;52.626;-8.668;2023-11-19T08:46:33;14.38;;;2.90;;
64351;SDS011;50680;52.626;-8.668;2023-11-19T08:49:00;19.42;;;3.17;;
64351;SDS011;50680;52.626;-8.668;2023-11-19T08:51:27;23.27;;;3.83;;
64351;SDS011;50680;52.626;-8.668;2023-11-19T08:53:54;24.45;;;3.60;;
64351;SDS011;50680;52.626;-8.668;2023-11-19T08:56:22;19.67;;;3.63;;
64351;SDS011;50680;52.626;-8.668;2023-11-19T08:58:49;23.92;;;3.20;;
64351;SDS011;50680;52.626;-8.668;2023-11-19T09:01:16;23.80;;;3.58;;
64351;SDS011;50680;52.626;-8.668;2023-11-19T09:03:44;21.50;;;3.40;;
64351;SDS011;50680;52.626;-8.668;2023-11-19T09:06:11;24.33;;;3.95;;
64351;SDS011;50680;52.626;-8.668;2023-11-19T09:08:38;30.08;;;4.70;;
64351;SDS011;50680;52.626;-8.668;2023-11-19T09:11:08;27.65;;;3.45;;
64351;SDS011;50680;52.626;-8.668;2023-11-19T09:13:35;22.33;;;4.07;;
64351;SDS011;50680;52.626;-8.668;2023-11-19T09:16:02;26.05;;;4.82;;
64351;SDS011;50680;52.626;-8.668;2023-11-19T09:18:30;34.05;;;4.15;;
64351;SDS011;50680;52.626;-8.668;2023-11-19T09:20:58;28.00;;;3.78;;
64351;SDS011;50680;52.626;-8.668;2023-11-19T09:23:26;18.08;;;3.47;;
64351;SDS011;50680;52.626;-8.668;2023-11-19T09:25:55;22.15;;;4.60;;
64351;SDS011;50680;52.626;-8.668;2023-11-19T09:28:22;24.42;;;3.55;;
64351;SDS011;50680;52.626;-8.668;2023-11-19T09:30:50;26.95;;;3.35;;
64351;SDS011;50680;52.626;-8.668;2023-11-19T09:33:17;24.75;;;4.28;;
64351;SDS011;50680;52.626;-8.668;2023-11-19T09:35:45;20.00;;;3.60;;
64351;SDS011;50680;52.626;-8.668;2023-11-19T09:38:12;25.83;;;3.67;;
64351;SDS011;50680;52.626;-8.668;2023-11-19T09:40:39;31.73;;;4.30;;
64351;SDS011;50680;52.626;-8.668;2023-11-19T09:43:06;30.40;;;4.22;;
64351;SDS011;50680;52.626;-8.668;2023-11-19T09:45:52;26.55;;;3.70;;
64351;SDS011;50680;52.626;-8.668;2023-11-19T09:48:19;36.47;;;3.97;;
64351;SDS011;50680;52.626;-8.668;2023-11-19T09:50:48;23.33;;;3.78;;
64351;SDS011;50680;52.626;-8.668;2023-11-19T09:53:17;26.90;;;3.30;;
64351;SDS011;50680;52.626;-8.668;2023-11-19T09:55:47;26.67;;;3.88;;
64351;SDS011;50680;52.626;-8.668;2023-11-19T09:58:14;33.00;;;4.70;;
64351;SDS011;50680;52.626;-8.668;2023-11-19T10:00:42;26.00;;;3.60;;
64351;SDS011;50680;52.626;-8.668;2023-11-19T10:03:12;28.63;;;4.30;;
64351;SDS011;50680;52.626;-8.668;2023-11-19T10:05:40;22.83;;;4.07;;
64351;SDS011;50680;52.626;-8.668;2023-11-19T10:08:07;25.25;;;4.13;;
64351;SDS011;50680;52.626;-8.668;2023-11-19T10:10:34;23.15;;;4.72;;
64351;SDS011;50680;52.626;-8.668;2023-11-19T10:13:01;20.48;;;3.80;;
64351;SDS011;50680;52.626;-8.668;2023-11-19T10:15:28;18.67;;;3.67;;
64351;SDS011;50680;52.626;-8.668;2023-11-19T10:18:03;29.67;;;4.13;;
64351;SDS011;50680;52.626;-8.668;2023-11-19T10:20:36;30.03;;;4.27;;
64351;SDS011;50680;52.626;-8.668;2023-11-19T10:23:03;24.70;;;3.40;;
64351;SDS011;50680;52.626;-8.668;2023-11-19T10:25:30;21.27;;;3.85;;
64351;SDS011;50680;52.626;-8.668;2023-11-19T10:28:00;18.08;;;3.50;;
64351;SDS011;50680;52.626;-8.668;2023-11-19T10:30:28;19.08;;;3.45;;
64351;SDS011;50680;52.626;-8.668;2023-11-19T10:33:03;23.52;;;3.28;;
64351;SDS011;50680;52.626;-8.668;2023-11-19T10:35:51;17.40;;;4.03;;
64351;SDS011;50680;52.626;-8.668;2023-11-19T10:38:28;19.60;;;3.58;;
64351;SDS011;50680;52.626;-8.668;2023-11-19T10:40:55;19.77;;;4.05;;
64351;SDS011;50680;52.626;-8.668;2023-11-19T10:43:23;29.27;;;4.25;;
64351;SDS011;50680;52.626;-8.668;2023-11-19T10:45:50;25.70;;;3.90;;
64351;SDS011;50680;52.626;-8.668;2023-11-19T10:48:18;25.05;;;3.97;;
64351;SDS011;50680;52.626;-8.668;2023-11-19T10:50:49;33.10;;;4.25;;
64351;SDS011;50680;52.626;-8.668;2023-11-19T10:53:21;21.27;;;4.22;;
64351;SDS011;50680;52.626;-8.668;2023-11-19T10:55:53;19.15;;;4.03;;
64351;SDS011;50680;52.626;-8.668;2023-11-19T10:58:25;26.52;;;4.35;;
64351;SDS011;50680;52.626;-8.668;2023-11-19T11:01:03;26.60;;;4.93;;
64351;SDS011;50680;52.626;-8.668;2023-11-19T11:04:13;22.38;;;3.60;;
64351;SDS011;50680;52.626;-8.668;2023-11-19T11:06:44;29.27;;;4.00;;
64351;SDS011;50680;52.626;-8.668;2023-11-19T11:09:13;29.55;;;4.70;;
64351;SDS011;50680;52.626;-8.668;2023-11-19T11:11:42;29.63;;;4.30;;
64351;SDS011;50680;52.626;-8.668;2023-11-19T11:14:16;23.25;;;3.72;;
64351;SDS011;50680;52.626;-8.668;2023-11-19T11:16:48;28.00;;;4.50;;
64351;SDS011;50680;52.626;-8.668;2023-11-19T11:19:16;20.80;;;3.65;;
64351;SDS011;50680;52.626;-8.668;2023-11-19T11:21:46;25.85;;;3.58;;
64351;SDS011;50680;52.626;-8.668;2023-11-19T11:24:27;19.20;;;3.72;;
64351;SDS011;50680;52.626;-8.668;2023-11-19T11:38:09;21.25;;;3.70;;
64351;SDS011;50680;52.626;-8.668;2023-11-19T11:40:36;22.27;;;4.20;;
64351;SDS011;50680;52.626;-8.668;2023-11-19T11:43:03;26.65;;;3.95;;
64351;SDS011;50680;52.626;-8.668;2023-11-19T11:45:35;27.05;;;4.78;;
64351;SDS011;50680;52.626;-8.668;2023-11-19T11:48:16;25.00;;;3.58;;
64351;SDS011;50680;52.626;-8.668;2023-11-19T11:50:47;29.02;;;4.40;;
64351;SDS011;50680;52.626;-8.668;2023-11-19T11:53:17;22.17;;;3.35;;
64351;SDS011;50680;52.626;-8.668;2023-11-19T11:58:20;23.27;;;4.03;;
64351;SDS011;50680;52.626;-8.668;2023-11-19T12:00:48;28.85;;;4.05;;
64351;SDS011;50680;52.626;-8.668;2023-11-19T12:03:16;27.20;;;4.55;;
64351;SDS011;50680;52.626;-8.668;2023-11-19T12:05:48;17.30;;;2.95;;
64351;SDS011;50680;52.626;-8.668;2023-11-19T12:08:18;18.60;;;2.80;;
64351;SDS011;50680;52.626;-8.668;2023-11-19T12:10:52;19.58;;;3.90;;
64351;SDS011;50680;52.626;-8.668;2023-11-19T12:13:24;16.30;;;3.80;;
64351;SDS011;50680;52.626;-8.668;2023-11-19T12:16:10;26.98;;;3.85;;
64351;SDS011;50680;52.626;-8.668;2023-11-19T12:18:38;29.63;;;4.95;;
64351;SDS011;50680;52.626;-8.668;2023-11-19T12:21:06;22.55;;;3.72;;
64351;SDS011;50680;52.626;-8.668;2023-11-19T12:23:44;24.63;;;4.10;;
64351;SDS011;50680;52.626;-8.668;2023-11-19T12:26:34;27.45;;;4.22;;
64351;SDS011;50680;52.626;-8.668;2023-11-19T12:29:05;26.45;;;3.63;;
64351;SDS011;50680;52.626;-8.668;2023-11-19T12:31:35;21.75;;;3.88;;
64351;SDS011;50680;52.626;-8.668;2023-11-19T12:34:06;31.80;;;3.92;;
64351;SDS011;50680;52.626;-8.668;2023-11-19T12:36:34;26.80;;;4.18;;
64351;SDS011;50680;52.626;-8.668;2023-11-19T12:39:01;18.27;;;3.17;;
64351;SDS011;50680;52.626;-8.668;2023-11-19T12:41:29;10.43;;;2.40;;
64351;SDS011;50680;52.626;-8.668;2023-11-19T12:44:09;16.70;;;2.90;;
64351;SDS011;50680;52.626;-8.668;2023-11-19T12:46:39;18.77;;;3.08;;
64351;SDS011;50680;52.626;-8.668;2023-11-19T12:49:06;20.30;;;2.80;;
64351;SDS011;50680;52.626;-8.668;2023-11-19T12:51:33;23.95;;;3.47;;
64351;SDS011;50680;52.626;-8.668;2023-11-19T12:54:00;22.23;;;4.60;;
64351;SDS011;50680;52.626;-8.668;2023-11-19T12:56:27;23.05;;;4.40;;
64351;SDS011;50680;52.626;-8.668;2023-11-19T12:58:56;22.55;;;4.22;;
64351;SDS011;50680;52.626;-8.668;2023-11-19T13:01:23;32.85;;;4.18;;
64351;SDS011;50680;52.626;-8.668;2023-11-19T13:03:50;21.15;;;4.28;;
64351;SDS011;50680;52.626;-8.668;2023-11-19T13:06:18;21.75;;;4.13;;
64351;SDS011;50680;52.626;-8.668;2023-11-19T13:08:49;20.73;;;3.22;;
64351;SDS011;50680;52.626;-8.668;2023-11-19T13:13:59;25.35;;;4.03;;
64351;SDS011;50680;52.626;-8.668;2023-11-19T13:16:38;29.63;;;4.72;;
64351;SDS011;50680;52.626;-8.668;2023-11-19T13:19:06;33.30;;;5.03;;
64351;SDS011;50680;52.626;-8.668;2023-11-19T13:21:32;29.63;;;4.90;;
64351;SDS011;50680;52.626;-8.668;2023-11-19T13:24:00;36.53;;;4.60;;
64351;SDS011;50680;52.626;-8.668;2023-11-19T13:26:27;32.13;;;4.93;;
64351;SDS011;50680;52.626;-8.668;2023-11-19T13:28:54;37.60;;;5.43;;
64351;SDS011;50680;52.626;-8.668;2023-11-19T13:31:21;34.83;;;5.65;;
64351;SDS011;50680;52.626;-8.668;2023-11-19T13:33:48;29.80;;;5.20;;
64351;SDS011;50680;52.626;-8.668;2023-11-19T13:36:16;28.42;;;5.20;;
64351;SDS011;50680;52.626;-8.668;2023-11-19T13:38:43;28.67;;;6.78;;
64351;SDS011;50680;52.626;-8.668;2023-11-19T13:41:11;30.05;;;4.45;;
64351;SDS011;50680;52.626;-8.668;2023-11-19T13:43:39;33.63;;;4.53;;
64351;SDS011;50680;52.626;-8.668;2023-11-19T13:46:06;28.45;;;5.40;;
64351;SDS011;50680;52.626;-8.668;2023-11-19T13:48:37;32.95;;;5.65;;
64351;SDS011;50680;52.626;-8.668;2023-11-19T13:51:04;34.30;;;4.85;;
64351;SDS011;50680;52.626;-8.668;2023-11-19T13:53:32;32.28;;;5.30;;
64351;SDS011;50680;52.626;-8.668;2023-11-19T13:56:17;40.17;;;5.20;;
64351;SDS011;50680;52.626;-8.668;2023-11-19T13:58:44;37.42;;;5.38;;
64351;SDS011;50680;52.626;-8.668;2023-11-19T14:01:11;35.97;;;5.20;;
64351;SDS011;50680;52.626;-8.668;2023-11-19T14:03:40;28.75;;;5.45;;
64351;SDS011;50680;52.626;-8.668;2023-11-19T14:06:08;30.48;;;5.38;;
64351;SDS011;50680;52.626;-8.668;2023-11-19T14:08:36;33.60;;;6.43;;
64351;SDS011;50680;52.626;-8.668;2023-11-19T14:11:03;33.08;;;6.43;;
64351;SDS011;50680;52.626;-8.668;2023-11-19T14:13:30;36.92;;;6.70;;
64351;SDS011;50680;52.626;-8.668;2023-11-19T14:15:57;31.33;;;4.82;;
64351;SDS011;50680;52.626;-8.668;2023-11-19T14:18:24;34.15;;;5.72;;
64351;SDS011;50680;52.626;-8.668;2023-11-19T14:20:51;27.83;;;5.38;;
64351;SDS011;50680;52.626;-8.668;2023-11-19T14:23:18;37.90;;;5.35;;
64351;SDS011;50680;52.626;-8.668;2023-11-19T14:25:46;38.42;;;5.88;;
64351;SDS011;50680;52.626;-8.668;2023-11-19T14:28:12;26.65;;;5.35;;
64351;SDS011;50680;52.626;-8.668;2023-11-19T14:30:40;37.60;;;6.20;;
64351;SDS011;50680;52.626;-8.668;2023-11-19T14:33:08;29.33;;;5.32;;
64351;SDS011;50680;52.626;-8.668;2023-11-19T14:35:35;30.13;;;5.20;;
64351;SDS011;50680;52.626;-8.668;2023-11-19T14:38:02;39.17;;;6.03;;
64351;SDS011;50680;52.626;-8.668;2023-11-19T14:40:31;24.60;;;5.07;;
64351;SDS011;50680;52.626;-8.668;2023-11-19T14:43:01;34.38;;;5.57;;
64351;SDS011;50680;52.626;-8.668;2023-11-19T14:45:28;27.98;;;5.32;;
64351;SDS011;50680;52.626;-8.668;2023-11-19T14:48:04;31.67;;;5.65;;
64351;SDS011;50680;52.626;-8.668;2023-11-19T14:50:31;33.38;;;4.97;;
64351;SDS011;50680;52.626;-8.668;2023-11-19T14:52:58;32.28;;;5.22;;